Time;durP1;ratioP1;P1;durP2;ratioP2;P2;SDS_P1;SDS_P2;PMS_P1;PMS_P2;Temp;Humidity;BMP_temperature;BMP_pressure;BME280_temperature;BME280_humidity;BME280_pressure;Samples;Min_cycle;Max_cycle;Signal;HPM_P1;HPM_P2
2021/12/31 00:02:24;;;;;;;169.73;93.95;;;5.90;99.90;;;;;;5075365;28;20053;-84
2021/12/31 00:04:52;;;;;;;170.95;91.55;;;5.90;99.90;;;;;;5073461;28;20503;-82
2021/12/31 00:07:24;;;;;;;162.00;89.00;;;5.90;99.90;;;;;;5075474;28;20498;-83
2021/12/31 00:09:51;;;;;;;162.65;87.25;;;6.00;99.90;;;;;;5075649;28;20502;-80
2021/12/31 00:12:20;;;;;;;158.43;88.50;;;6.10;99.90;;;;;;5075887;28;20052;-78
2021/12/31 00:14:47;;;;;;;161.52;87.43;;;6.20;99.90;;;;;;5074310;28;20052;-78
2021/12/31 00:17:15;;;;;;;166.10;91.20;;;6.30;99.90;;;;;;5074512;28;20127;-80
2021/12/31 00:19:45;;;;;;;174.35;93.50;;;6.40;99.90;;;;;;5077430;28;20123;-80
2021/12/31 00:22:39;;;;;;;177.70;94.05;;;6.50;1.00;;;;;;5075293;28;20164;-78
2021/12/31 00:25:07;;;;;;;184.65;95.70;;;6.50;1.00;;;;;;5090550;28;20056;-77
2021/12/31 00:27:36;;;;;;;172.65;93.63;;;6.50;1.00;;;;;;5075855;28;20115;-77
2021/12/31 00:30:05;;;;;;;197.55;110.68;;;6.50;1.00;;;;;;5079240;28;20040;-77
2021/12/31 00:32:32;;;;;;;232.30;126.25;;;6.40;1.00;;;;;;5078246;28;20051;-77
2021/12/31 00:35:00;;;;;;;240.23;130.55;;;6.40;1.00;;;;;;5074170;28;20075;-78
2021/12/31 00:37:28;;;;;;;245.43;133.50;;;6.30;1.00;;;;;;5076159;28;20040;-78
2021/12/31 00:39:55;;;;;;;225.23;123.15;;;6.20;1.00;;;;;;5091303;28;20559;-78
2021/12/31 00:42:23;;;;;;;215.85;117.78;;;6.20;1.00;;;;;;5076812;28;20043;-78
2021/12/31 00:44:52;;;;;;;209.57;114.20;;;6.20;18.90;;;;;;5074889;28;20036;-79
2021/12/31 00:47:20;;;;;;;233.02;122.72;;;6.20;99.90;;;;;;5075306;28;20552;-78
2021/12/31 00:49:47;;;;;;;227.50;124.15;;;6.30;99.90;;;;;;5075348;28;20119;-78
2021/12/31 00:52:15;;;;;;;249.07;134.30;;;6.30;99.90;;;;;;5074824;28;20044;-78
2021/12/31 00:54:43;;;;;;;268.67;144.85;;;6.30;99.90;;;;;;5090780;28;20060;-78
2021/12/31 00:57:11;;;;;;;266.13;144.20;;;6.20;99.90;;;;;;5077270;28;20044;-78
2021/12/31 00:59:40;;;;;;;273.23;145.95;;;6.20;99.90;;;;;;5094178;28;20055;-78
2021/12/31 01:02:11;;;;;;;282.00;152.15;;;6.10;99.90;;;;;;5094516;28;20048;-78
2021/12/31 01:04:39;;;;;;;288.10;151.55;;;6.00;99.90;;;;;;5076441;28;20040;-77
2021/12/31 01:07:07;;;;;;;264.33;142.15;;;5.90;1.00;;;;;;5095445;28;20035;-78
2021/12/31 01:09:35;;;;;;;271.00;141.05;;;5.90;1.00;;;;;;5094827;28;20066;-78
2021/12/31 01:12:07;;;;;;;260.95;139.45;;;5.80;1.00;;;;;;5094695;28;20440;-78
2021/12/31 01:14:37;;;;;;;274.17;143.15;;;5.80;1.00;;;;;;5096938;28;20036;-78
2021/12/31 01:17:08;;;;;;;257.33;140.30;;;5.80;1.00;;;;;;5098755;28;20055;-78
2021/12/31 01:19:48;;;;;;;254.30;138.40;;;5.70;1.00;;;;;;5098976;28;20044;-77
2021/12/31 01:22:17;;;;;;;249.23;132.63;;;5.70;1.00;;;;;;5098840;28;20043;-77
2021/12/31 01:24:45;;;;;;;232.40;128.07;;;5.70;1.00;;;;;;5099032;28;20036;-76
2021/12/31 01:27:14;;;;;;;230.35;128.07;;;5.70;1.00;;;;;;5099330;28;20482;-79
2021/12/31 01:29:42;;;;;;;244.15;133.52;;;5.70;1.00;;;;;;5102814;28;20123;-78
2021/12/31 01:32:10;;;;;;;224.93;124.03;;;5.70;1.00;;;;;;5119917;28;20036;-78
2021/12/31 01:34:40;;;;;;;227.75;123.15;;;5.60;1.00;;;;;;5118569;28;20107;-77
2021/12/31 01:37:09;;;;;;;258.85;135.32;;;5.60;1.00;;;;;;5102293;28;20078;-78
2021/12/31 01:39:36;;;;;;;254.80;133.30;;;5.50;1.00;;;;;;5098464;28;20048;-78
2021/12/31 01:42:08;;;;;;;251.50;128.10;;;5.50;43.20;;;;;;5085749;28;20051;-78
2021/12/31 01:44:38;;;;;;;209.38;113.30;;;5.50;99.90;;;;;;5096703;28;20553;-77
2021/12/31 01:47:11;;;;;;;198.27;109.10;;;5.50;99.90;;;;;;5099012;28;20047;-78
2021/12/31 01:49:53;;;;;;;198.85;108.22;;;5.50;1.00;;;;;;5106970;28;20052;-78
2021/12/31 01:52:20;;;;;;;262.33;138.30;;;5.50;1.00;;;;;;5098348;28;20071;-81
2021/12/31 01:54:48;;;;;;;270.25;139.73;;;5.50;1.00;;;;;;5072044;28;20063;-80
2021/12/31 01:57:16;;;;;;;252.05;133.38;;;5.50;1.00;;;;;;5096802;28;20048;-81
2021/12/31 01:59:44;;;;;;;272.05;143.50;;;5.50;1.00;;;;;;5080793;28;20040;-79
2021/12/31 02:02:12;;;;;;;286.00;153.75;;;5.40;1.00;;;;;;5096135;28;20062;-81
2021/12/31 02:04:42;;;;;;;309.63;172.60;;;5.50;1.00;;;;;;5094997;28;20049;-80
2021/12/31 02:07:10;;;;;;;297.42;164.23;;;5.30;1.00;;;;;;5079031;28;20048;-80
2021/12/31 02:09:45;;;;;;;298.83;163.65;;;5.20;99.90;;;;;;5077301;28;20143;-80
2021/12/31 02:12:12;;;;;;;303.33;170.27;;;5.20;1.00;;;;;;5093846;28;20123;-80
2021/12/31 02:14:40;;;;;;;288.67;157.40;;;5.20;1.00;;;;;;5098259;28;20048;-80
2021/12/31 02:17:10;;;;;;;283.38;153.05;;;5.20;1.00;;;;;;5097730;28;20062;-81
2021/12/31 02:19:43;;;;;;;266.10;140.52;;;5.20;99.90;;;;;;5096955;28;20043;-81
2021/12/31 02:22:12;;;;;;;236.95;129.13;;;5.30;1.00;;;;;;5098699;28;20122;-80
2021/12/31 02:24:41;;;;;;;246.95;131.73;;;5.40;1.00;;;;;;5080879;28;20046;-82
2021/12/31 02:27:09;;;;;;;231.13;126.07;;;5.40;1.00;;;;;;5097951;28;20040;-80
2021/12/31 02:29:37;;;;;;;197.65;110.32;;;5.50;1.00;;;;;;5096332;28;20048;-80
2021/12/31 02:32:05;;;;;;;213.05;118.55;;;5.50;99.90;;;;;;5090292;28;20045;-82
2021/12/31 02:34:33;;;;;;;219.98;124.15;;;5.50;99.90;;;;;;5096658;28;20391;-81
2021/12/31 02:37:00;;;;;;;186.90;104.13;;;5.50;1.00;;;;;;5096848;28;20032;-80
2021/12/31 02:39:29;;;;;;;169.73;97.32;;;5.50;1.00;;;;;;5089993;28;20079;-82
2021/12/31 02:41:57;;;;;;;165.52;93.63;;;5.40;1.00;;;;;;5087853;28;20020;-78
2021/12/31 02:44:24;;;;;;;196.82;108.95;;;5.30;90.00;;;;;;5121536;28;20040;-78
2021/12/31 02:46:51;;;;;;;202.23;113.03;;;5.20;99.90;;;;;;5119289;28;20103;-80
2021/12/31 02:49:23;;;;;;;223.55;124.43;;;5.10;1.00;;;;;;5098449;28;20048;-81
2021/12/31 02:51:51;;;;;;;200.55;111.10;;;5.10;1.00;;;;;;5100075;28;20046;-81
2021/12/31 02:54:20;;;;;;;172.70;100.13;;;5.10;1.00;;;;;;5081058;28;20521;-80
2021/12/31 02:56:49;;;;;;;167.15;95.60;;;5.10;1.00;;;;;;5097603;28;20047;-80
2021/12/31 02:59:17;;;;;;;157.15;89.20;;;5.10;1.00;;;;;;5071551;28;20147;-80
2021/12/31 03:01:44;;;;;;;150.63;84.93;;;5.10;1.00;;;;;;5097031;28;20036;-81
2021/12/31 03:04:14;;;;;;;161.60;90.22;;;5.10;10.50;;;;;;5098119;28;20044;-80
2021/12/31 03:06:43;;;;;;;139.40;81.40;;;5.10;1.00;;;;;;5097569;28;20047;-81
2021/12/31 03:09:12;;;;;;;140.57;78.93;;;5.10;1.00;;;;;;5098340;28;20054;-80
2021/12/31 03:11:40;;;;;;;141.82;78.55;;;5.10;56.70;;;;;;5079366;28;20135;-80
2021/12/31 03:14:10;;;;;;;145.95;81.75;;;5.10;1.00;;;;;;5079280;28;20047;-80
2021/12/31 03:16:38;;;;;;;157.63;86.53;;;5.10;1.00;;;;;;5096002;28;20123;-80
2021/12/31 03:19:06;;;;;;;155.43;83.03;;;5.10;1.00;;;;;;5095918;28;20055;-80
2021/12/31 03:21:33;;;;;;;149.43;83.13;;;5.10;1.00;;;;;;5083916;28;20047;-80
2021/12/31 03:24:01;;;;;;;140.35;77.25;;;5.10;1.00;;;;;;5111169;28;20476;-81
2021/12/31 03:26:28;;;;;;;151.45;85.95;;;5.10;1.00;;;;;;5104078;28;20537;-80
2021/12/31 03:28:55;;;;;;;141.48;76.05;;;5.10;1.00;;;;;;5096519;28;20085;-80
2021/12/31 03:31:25;;;;;;;140.73;74.20;;;5.10;99.90;;;;;;5117715;28;20498;-78
2021/12/31 03:33:52;;;;;;;120.65;67.30;;;5.00;99.90;;;;;;5117496;28;20036;-81
2021/12/31 03:36:20;;;;;;;133.70;68.78;;;5.00;99.90;;;;;;5111684;28;20048;-80
2021/12/31 03:38:47;;;;;;;130.77;72.05;;;4.90;99.90;;;;;;5112790;28;20048;-79
2021/12/31 03:41:15;;;;;;;129.23;68.70;;;4.90;99.90;;;;;;5104167;28;20118;-80
2021/12/31 03:43:42;;;;;;;145.95;76.20;;;4.90;99.90;;;;;;5077928;28;20524;-79
2021/12/31 03:46:10;;;;;;;145.38;78.60;;;4.90;1.00;;;;;;5097208;28;20032;-79
2021/12/31 03:48:40;;;;;;;152.52;84.45;;;4.90;1.00;;;;;;5077040;28;20052;-80
2021/12/31 03:51:08;;;;;;;141.93;76.80;;;4.90;99.90;;;;;;5095057;28;20055;-80
2021/12/31 03:53:35;;;;;;;138.13;78.82;;;4.90;99.90;;;;;;5096450;28;20056;-80
2021/12/31 03:56:03;;;;;;;125.88;71.93;;;4.90;99.90;;;;;;5094957;28;20452;-80
2021/12/31 03:58:31;;;;;;;128.13;71.53;;;4.90;99.90;;;;;;5095434;28;20388;-80
2021/12/31 04:00:58;;;;;;;122.80;69.57;;;4.90;99.90;;;;;;5102208;28;20058;-81
2021/12/31 04:03:25;;;;;;;134.57;75.97;;;4.80;90.80;;;;;;5106414;28;20477;-80
2021/12/31 04:05:54;;;;;;;134.88;76.30;;;4.80;1.00;;;;;;5077895;28;20135;-79
2021/12/31 04:08:22;;;;;;;126.32;73.72;;;4.60;99.90;;;;;;5095321;28;20051;-79
2021/12/31 04:10:49;;;;;;;132.23;75.10;;;4.60;1.00;;;;;;5077656;28;20043;-79
2021/12/31 04:13:17;;;;;;;128.18;73.68;;;4.60;99.90;;;;;;5078068;28;20052;-81
2021/12/31 04:15:44;;;;;;;112.22;65.38;;;4.60;99.90;;;;;;5077293;28;20423;-78
2021/12/31 04:18:12;;;;;;;120.90;63.60;;;4.60;99.90;;;;;;5094641;28;20511;-80
2021/12/31 04:20:42;;;;;;;106.93;62.25;;;4.50;99.90;;;;;;5095538;28;20040;-80
2021/12/31 04:23:14;;;;;;;105.20;58.28;;;4.50;1.00;;;;;;5095334;28;20040;-80
2021/12/31 04:25:42;;;;;;;103.97;56.83;;;4.50;1.00;;;;;;5057102;28;20482;-80
2021/12/31 04:28:10;;;;;;;106.57;59.05;;;4.50;99.90;;;;;;5066987;28;20045;-80
2021/12/31 04:30:38;;;;;;;132.55;74.10;;;4.50;99.90;;;;;;5077444;28;20058;-80
2021/12/31 04:33:06;;;;;;;118.55;65.32;;;4.40;1.00;;;;;;5087402;28;20043;-79
2021/12/31 04:35:34;;;;;;;110.70;61.30;;;4.30;1.00;;;;;;5086089;28;20065;-80
2021/12/31 04:38:01;;;;;;;120.28;70.38;;;4.20;1.00;;;;;;5095058;28;20469;-80
2021/12/31 04:40:30;;;;;;;122.68;69.32;;;4.20;82.10;;;;;;5096984;28;20044;-80
2021/12/31 04:42:58;;;;;;;127.00;72.68;;;4.30;1.00;;;;;;5102923;28;20048;-80
2021/12/31 04:45:25;;;;;;;128.40;75.32;;;4.30;99.90;;;;;;5101734;28;20051;-81
2021/12/31 04:47:53;;;;;;;129.98;74.53;;;4.30;1.00;;;;;;5078327;28;20040;-80
2021/12/31 04:50:21;;;;;;;136.48;78.00;;;4.20;1.00;;;;;;5079432;28;20045;-80
2021/12/31 04:52:48;;;;;;;128.48;72.93;;;4.20;1.00;;;;;;5082627;28;20071;-80
2021/12/31 04:55:16;;;;;;;129.32;72.32;;;4.10;1.00;;;;;;5096298;28;20036;-80
2021/12/31 04:57:48;;;;;;;120.13;69.20;;;4.10;99.90;;;;;;5097072;28;20131;-81
2021/12/31 05:00:16;;;;;;;121.60;69.93;;;4.20;1.00;;;;;;5097819;28;20111;-81
2021/12/31 05:02:44;;;;;;;109.13;61.38;;;4.20;1.00;;;;;;5109895;28;20039;-79
2021/12/31 05:05:11;;;;;;;115.68;65.43;;;4.30;1.00;;;;;;5118407;28;20031;-81
2021/12/31 05:07:39;;;;;;;104.70;59.83;;;4.20;99.90;;;;;;5118931;28;20044;-80
2021/12/31 05:10:08;;;;;;;92.38;52.35;;;4.20;1.00;;;;;;5118696;28;20042;-79
2021/12/31 05:12:37;;;;;;;101.20;57.58;;;4.20;99.90;;;;;;5101368;28;20036;-78
2021/12/31 05:15:09;;;;;;;105.10;56.63;;;4.20;1.00;;;;;;5118210;28;20044;-80
2021/12/31 05:17:38;;;;;;;93.65;50.97;;;4.10;1.00;;;;;;5103125;28;20044;-79
2021/12/31 05:20:07;;;;;;;92.05;52.40;;;4.00;1.00;;;;;;5095318;28;20040;-79
2021/12/31 05:22:34;;;;;;;105.22;58.78;;;4.00;99.90;;;;;;5095147;28;20051;-79
2021/12/31 05:25:02;;;;;;;103.13;61.20;;;4.00;99.90;;;;;;5094482;28;20048;-79
2021/12/31 05:27:29;;;;;;;109.95;62.28;;;4.00;1.00;;;;;;5095012;28;20111;-80
2021/12/31 05:29:57;;;;;;;112.22;64.28;;;4.00;1.00;;;;;;5094450;28;20048;-79
2021/12/31 05:32:25;;;;;;;120.28;68.97;;;4.00;99.90;;;;;;5076055;28;20040;-80
2021/12/31 05:34:53;;;;;;;115.35;68.60;;;3.90;99.90;;;;;;5076921;28;20086;-80
2021/12/31 05:37:20;;;;;;;133.57;75.68;;;3.90;99.90;;;;;;5096750;28;20029;-80
2021/12/31 05:39:48;;;;;;;134.90;79.18;;;3.90;99.90;;;;;;5095950;28;20051;-80
2021/12/31 05:42:16;;;;;;;135.73;76.20;;;3.80;1.00;;;;;;5076048;28;20067;-80
2021/12/31 05:44:44;;;;;;;92.68;54.03;;;3.70;8.90;;;;;;5092990;28;20421;-81
2021/12/31 05:47:12;;;;;;;77.90;48.50;;;3.70;99.90;;;;;;5093292;28;20445;-79
2021/12/31 05:49:41;;;;;;;93.28;54.40;;;3.70;1.00;;;;;;5093264;28;20451;-81
2021/12/31 05:52:08;;;;;;;105.25;55.03;;;3.60;99.90;;;;;;5075592;28;20139;-80
2021/12/31 05:54:36;;;;;;;196.68;102.85;;;3.70;1.00;;;;;;5075826;28;20048;-79
2021/12/31 05:57:04;;;;;;;135.73;77.05;;;3.70;1.00;;;;;;5075933;28;20418;-81
2021/12/31 05:59:31;;;;;;;147.48;88.68;;;3.70;99.90;;;;;;5076797;28;20045;-80
2021/12/31 06:01:58;;;;;;;180.95;104.78;;;3.70;1.00;;;;;;5089121;28;20520;-82
2021/12/31 06:04:26;;;;;;;219.30;119.00;;;3.60;1.00;;;;;;5092141;28;20032;-80
2021/12/31 06:06:55;;;;;;;182.82;106.97;;;3.60;99.90;;;;;;5091022;28;20420;-80
2021/12/31 06:09:22;;;;;;;162.52;95.07;;;3.50;1.00;;;;;;5097576;28;20044;-81
2021/12/31 06:11:50;;;;;;;160.48;90.72;;;3.40;99.90;;;;;;5097493;28;20046;-81
2021/12/31 06:14:17;;;;;;;165.05;90.38;;;3.40;1.00;;;;;;5103408;28;20064;-81
2021/12/31 06:16:46;;;;;;;149.18;88.15;;;3.40;22.60;;;;;;5105313;28;20060;-82
2021/12/31 06:19:14;;;;;;;156.15;89.40;;;3.50;1.00;;;;;;5097542;28;20040;-83
2021/12/31 06:21:44;;;;;;;138.52;82.63;;;3.50;1.00;;;;;;5096451;28;20518;-81
2021/12/31 06:24:13;;;;;;;145.23;81.80;;;3.50;1.00;;;;;;5096224;28;20040;-80
2021/12/31 06:26:41;;;;;;;143.52;81.35;;;3.60;99.90;;;;;;5078622;28;20043;-82
2021/12/31 06:29:08;;;;;;;162.63;87.10;;;3.60;99.90;;;;;;5091746;28;20062;-81
2021/12/31 06:31:35;;;;;;;163.23;89.93;;;3.60;99.90;;;;;;5096066;28;20399;-82
2021/12/31 06:34:03;;;;;;;143.02;83.22;;;3.70;99.90;;;;;;5094725;28;20043;-82
2021/12/31 06:36:30;;;;;;;144.45;81.65;;;3.70;99.90;;;;;;5090097;28;20111;-80
2021/12/31 06:39:01;;;;;;;134.95;81.43;;;3.70;90.30;;;;;;5073337;28;20419;-81
2021/12/31 06:41:30;;;;;;;137.77;80.78;;;3.70;1.00;;;;;;5088117;28;20048;-80
2021/12/31 06:43:58;;;;;;;154.75;90.13;;;3.70;1.00;;;;;;5092061;28;20457;-80
2021/12/31 06:46:25;;;;;;;214.35;116.50;;;3.70;1.00;;;;;;5095379;28;20048;-82
2021/12/31 06:48:52;;;;;;;206.80;117.18;;;3.70;52.50;;;;;;5096789;28;20042;-79
2021/12/31 06:51:20;;;;;;;185.15;108.38;;;3.70;1.00;;;;;;5095450;28;20517;-80
2021/12/31 06:53:47;;;;;;;206.60;115.45;;;3.70;1.00;;;;;;5089533;28;20048;-82
2021/12/31 06:56:15;;;;;;;192.20;107.72;;;3.80;1.00;;;;;;5096982;28;20101;-81
2021/12/31 06:58:44;;;;;;;200.43;109.40;;;3.80;99.90;;;;;;5090019;28;20060;-81
2021/12/31 07:01:12;;;;;;;272.45;144.27;;;3.90;1.00;;;;;;5097581;28;20082;-82
2021/12/31 07:03:39;;;;;;;304.45;162.85;;;3.90;1.00;;;;;;5085416;28;20050;-80
2021/12/31 07:06:07;;;;;;;293.85;158.80;;;3.90;1.00;;;;;;5092042;28;20056;-79
2021/12/31 07:08:34;;;;;;;287.00;153.57;;;3.90;1.00;;;;;;5104132;28;20499;-79
2021/12/31 07:11:02;;;;;;;285.60;149.20;;;4.00;1.00;;;;;;5108086;28;20052;-82
2021/12/31 07:13:30;;;;;;;285.33;152.73;;;4.00;99.90;;;;;;5111553;28;20130;-81
2021/12/31 07:15:59;;;;;;;260.27;144.13;;;4.00;99.90;;;;;;5118777;28;20108;-78
2021/12/31 07:18:27;;;;;;;234.27;130.45;;;4.20;99.90;;;;;;5104474;28;20046;-82
2021/12/31 07:20:54;;;;;;;253.32;137.23;;;4.40;99.90;;;;;;5084195;28;20555;-82
2021/12/31 07:23:23;;;;;;;224.02;126.43;;;4.50;1.00;;;;;;5100198;28;20062;-81
2021/12/31 07:25:51;;;;;;;212.65;121.35;;;4.70;1.00;;;;;;5103636;28;20522;-81
2021/12/31 07:28:18;;;;;;;228.93;130.65;;;4.80;99.90;;;;;;5108651;28;20111;-80
2021/12/31 07:30:47;;;;;;;234.77;134.00;;;5.00;99.90;;;;;;5097233;28;20054;-82
2021/12/31 07:33:21;;;;;;;223.95;130.43;;;5.10;99.90;;;;;;5097240;28;20071;-81
2021/12/31 07:35:49;;;;;;;213.25;125.18;;;5.30;1.00;;;;;;5095317;28;20048;-82
2021/12/31 07:38:20;;;;;;;201.60;121.32;;;5.40;1.00;;;;;;5099244;28;20059;-82
2021/12/31 07:40:50;;;;;;;189.05;114.05;;;5.40;1.00;;;;;;5102820;28;20070;-81
2021/12/31 07:43:18;;;;;;;183.75;111.32;;;5.50;1.00;;;;;;5104073;28;20050;-77
2021/12/31 07:45:46;;;;;;;190.00;113.90;;;5.60;1.00;;;;;;5117418;28;20059;-81
2021/12/31 07:48:13;;;;;;;164.38;104.70;;;5.70;1.00;;;;;;5106061;28;20040;-82
2021/12/31 07:50:42;;;;;;;182.45;109.85;;;5.70;99.90;;;;;;5101516;28;20105;-82
2021/12/31 07:53:09;;;;;;;220.30;128.40;;;5.70;99.90;;;;;;5069178;28;20431;-82
2021/12/31 07:55:37;;;;;;;226.85;135.93;;;5.70;1.00;;;;;;5088752;28;20105;-81
2021/12/31 07:58:06;;;;;;;239.30;144.38;;;5.80;99.90;;;;;;5095684;28;20388;-82
2021/12/31 08:00:34;;;;;;;252.57;145.32;;;5.90;99.90;;;;;;5097676;28;20545;-82
2021/12/31 08:03:04;;;;;;;257.60;150.32;;;5.80;99.90;;;;;;5097263;28;20050;-84
2021/12/31 08:05:32;;;;;;;252.63;148.25;;;5.90;99.90;;;;;;5095584;28;20040;-81
2021/12/31 08:08:04;;;;;;;249.07;148.25;;;5.90;99.90;;;;;;5096015;28;20036;-80
2021/12/31 08:10:33;;;;;;;250.90;153.27;;;6.00;99.90;;;;;;5095692;28;20036;-82
2021/12/31 08:13:01;;;;;;;260.10;157.38;;;5.90;99.90;;;;;;5095872;28;20048;-80
2021/12/31 08:15:29;;;;;;;271.15;163.35;;;6.00;99.90;;;;;;5086761;28;20048;-79
2021/12/31 08:17:57;;;;;;;218.20;131.02;;;6.00;99.90;;;;;;5078007;28;20040;-80
2021/12/31 08:20:25;;;;;;;219.55;129.48;;;6.10;99.90;;;;;;5078619;28;20055;-80
2021/12/31 08:22:53;;;;;;;202.30;120.65;;;6.10;99.90;;;;;;5096917;28;20032;-79
2021/12/31 08:25:23;;;;;;;198.55;121.47;;;6.20;99.90;;;;;;5078184;28;20044;-80
2021/12/31 08:27:50;;;;;;;187.63;112.90;;;6.30;99.90;;;;;;5102437;28;20542;-82
2021/12/31 08:30:18;;;;;;;180.40;105.13;;;6.30;99.90;;;;;;5100916;28;20480;-82
2021/12/31 08:32:45;;;;;;;156.05;96.18;;;6.40;99.90;;;;;;5098337;28;20040;-82
2021/12/31 08:35:13;;;;;;;141.93;87.53;;;6.50;99.90;;;;;;5099130;28;20039;-82
2021/12/31 08:37:41;;;;;;;147.27;89.88;;;6.60;99.90;;;;;;5096862;28;20044;-82
2021/12/31 08:40:09;;;;;;;155.40;91.93;;;6.70;99.90;;;;;;5097018;28;20119;-80
2021/12/31 08:42:40;;;;;;;166.82;92.15;;;6.80;99.90;;;;;;5077683;28;20111;-80
2021/12/31 08:45:08;;;;;;;138.18;80.40;;;6.90;99.90;;;;;;5096418;28;20581;-82
2021/12/31 08:47:36;;;;;;;132.32;79.53;;;7.00;99.90;;;;;;5098133;28;20036;-81
2021/12/31 08:50:04;;;;;;;148.25;84.50;;;7.10;99.90;;;;;;5096308;28;20554;-81
2021/12/31 08:52:32;;;;;;;142.50;84.40;;;7.10;99.90;;;;;;5094896;28;20467;-82
2021/12/31 08:54:59;;;;;;;132.52;83.10;;;7.10;99.90;;;;;;5097035;28;20082;-82
2021/12/31 08:57:27;;;;;;;154.55;90.43;;;7.10;99.90;;;;;;5096053;28;20048;-81
2021/12/31 08:59:56;;;;;;;171.20;103.35;;;7.20;99.90;;;;;;5097016;28;20122;-81
2021/12/31 09:02:23;;;;;;;164.48;103.28;;;7.20;99.90;;;;;;5095878;28;20036;-80
2021/12/31 09:04:51;;;;;;;173.80;107.60;;;7.20;99.90;;;;;;5098507;28;20048;-80
2021/12/31 09:07:18;;;;;;;168.10;106.75;;;7.10;1.00;;;;;;5101211;28;20068;-82
2021/12/31 09:09:46;;;;;;;184.18;110.40;;;7.20;1.00;;;;;;5080969;28;20048;-81
2021/12/31 09:12:13;;;;;;;190.70;114.50;;;7.30;1.00;;;;;;5095626;28;20071;-81
2021/12/31 09:14:41;;;;;;;182.70;110.43;;;7.40;1.00;;;;;;5095135;28;20040;-81
2021/12/31 09:17:10;;;;;;;175.50;104.65;;;7.40;1.00;;;;;;5095505;28;20127;-81
2021/12/31 09:19:37;;;;;;;174.10;102.80;;;7.50;1.00;;;;;;5096828;28;20040;-81
2021/12/31 09:22:06;;;;;;;161.75;97.93;;;7.60;1.00;;;;;;5082479;28;20058;-81
2021/12/31 09:24:33;;;;;;;146.35;86.72;;;7.70;99.90;;;;;;5099425;28;20044;-81
2021/12/31 09:27:01;;;;;;;143.77;84.82;;;7.80;99.90;;;;;;5082828;28;20068;-81
2021/12/31 09:29:28;;;;;;;140.13;80.38;;;8.00;99.90;;;;;;5078780;28;20135;-81
2021/12/31 09:31:56;;;;;;;128.77;77.20;;;8.10;99.90;;;;;;5096113;28;20556;-81
2021/12/31 09:34:24;;;;;;;112.00;65.72;;;8.30;99.90;;;;;;5096019;28;20040;-80
2021/12/31 09:36:52;;;;;;;112.80;59.60;;;8.40;99.90;;;;;;5098996;28;20040;-81
2021/12/31 09:39:19;;;;;;;83.70;47.20;;;8.60;99.90;;;;;;5099101;28;20043;-81
2021/12/31 09:41:47;;;;;;;80.25;45.85;;;8.80;50.00;;;;;;5098181;28;20533;-81
2021/12/31 09:44:15;;;;;;;76.28;44.85;;;8.90;1.00;;;;;;5098794;28;20036;-81
2021/12/31 09:46:43;;;;;;;79.18;46.55;;;9.00;1.00;;;;;;5100425;28;20143;-81
2021/12/31 09:49:10;;;;;;;83.18;47.47;;;9.10;1.00;;;;;;5104709;28;20048;-81
2021/12/31 09:51:42;;;;;;;79.07;48.28;;;9.20;1.00;;;;;;5101512;28;20143;-81
2021/12/31 09:54:11;;;;;;;68.78;41.42;;;9.30;1.00;;;;;;5102357;28;20510;-82
2021/12/31 09:56:40;;;;;;;56.25;35.92;;;9.50;1.00;;;;;;5100806;28;20491;-81
2021/12/31 09:59:09;;;;;;;56.78;34.28;;;9.60;1.00;;;;;;5099206;28;20459;-80
2021/12/31 10:01:46;;;;;;;52.63;30.17;;;9.70;1.00;;;;;;5099281;28;20610;-79
2021/12/31 10:04:13;;;;;;;52.08;32.22;;;9.90;1.00;;;;;;5099441;28;20048;-80
2021/12/31 10:07:08;;;;;;;47.92;29.60;;;10.00;1.00;;;;;;5098392;28;20102;-80
2021/12/31 10:09:37;;;;;;;52.95;32.40;;;10.20;1.00;;;;;;5099714;28;20044;-83
2021/12/31 10:12:04;;;;;;;51.10;33.10;;;10.40;1.00;;;;;;5097465;28;20127;-81
2021/12/31 10:14:36;;;;;;;65.63;40.15;;;10.50;1.00;;;;;;5097471;28;20112;-81
2021/12/31 10:17:05;;;;;;;76.10;48.95;;;10.70;1.00;;;;;;5098401;28;20047;-81
2021/12/31 10:19:33;;;;;;;75.13;48.58;;;10.90;99.90;;;;;;5098189;28;20038;-82
2021/12/31 10:22:02;;;;;;;67.60;42.92;;;11.10;99.90;;;;;;5098210;28;20039;-81
2021/12/31 10:24:35;;;;;;;64.55;37.15;;;11.40;99.90;;;;;;5098452;28;20036;-81
2021/12/31 10:27:17;;;;;;;60.97;39.03;;;11.60;99.90;;;;;;5097598;28;20147;-78
2021/12/31 10:29:54;;;;;;;56.22;36.08;;;11.70;99.90;;;;;;5099193;28;20036;-80
2021/12/31 10:32:22;;;;;;;58.75;35.80;;;12.10;99.90;;;;;;5080857;28;20491;-80
2021/12/31 10:34:50;;;;;;;72.35;43.55;;;12.30;99.90;;;;;;5098656;28;20036;-80
2021/12/31 10:37:23;;;;;;;68.18;41.65;;;12.50;99.90;;;;;;5100624;28;20047;-81
2021/12/31 10:39:56;;;;;;;73.22;42.30;;;12.60;99.90;;;;;;5099241;28;20134;-81
2021/12/31 10:42:29;;;;;;;63.60;38.90;;;12.80;99.90;;;;;;5097099;28;20048;-80
2021/12/31 10:44:58;;;;;;;64.63;38.05;;;13.00;99.90;;;;;;5079397;28;20495;-82
2021/12/31 10:47:30;;;;;;;74.53;41.13;;;13.10;99.90;;;;;;5078198;28;20044;-80
2021/12/31 10:50:15;;;;;;;64.45;38.38;;;13.20;99.90;;;;;;5079435;28;20068;-80
2021/12/31 10:52:57;;;;;;;68.97;40.90;;;13.40;90.40;;;;;;5095665;28;20051;-80
2021/12/31 10:55:29;;;;;;;69.65;39.88;;;13.60;73.70;;;;;;5077027;28;20120;-80
2021/12/31 10:57:58;;;;;;;60.22;38.97;;;13.80;45.40;;;;;;5081091;28;20045;-81
2021/12/31 11:00:28;;;;;;;62.78;38.25;;;14.00;32.30;;;;;;5081381;28;20053;-81
2021/12/31 11:02:58;;;;;;;68.25;41.83;;;14.10;19.20;;;;;;5075990;28;20427;-80
2021/12/31 11:05:26;;;;;;;65.15;40.65;;;14.20;10.30;;;;;;5077079;28;20047;-80
2021/12/31 11:07:59;;;;;;;77.03;44.72;;;14.30;2.60;;;;;;5076110;28;20051;-81
2021/12/31 11:10:29;;;;;;;72.30;44.20;;;14.40;1.00;;;;;;5077394;28;20060;-80
2021/12/31 11:12:57;;;;;;;70.20;46.53;;;14.50;1.00;;;;;;5076967;28;20123;-79
2021/12/31 11:15:24;;;;;;;95.85;54.38;;;14.70;1.00;;;;;;5077175;28;20052;-80
2021/12/31 11:17:53;;;;;;;87.47;58.03;;;14.70;1.00;;;;;;5076735;28;20492;-76
2021/12/31 11:20:23;;;;;;;102.95;64.03;;;14.80;1.00;;;;;;5056443;28;20495;-78
2021/12/31 11:22:51;;;;;;;96.95;62.33;;;14.90;1.00;;;;;;5070573;28;20032;-80
2021/12/31 11:25:28;;;;;;;96.00;61.97;;;14.90;1.00;;;;;;5076913;28;20411;-79
2021/12/31 11:27:56;;;;;;;118.10;71.93;;;14.80;1.00;;;;;;5069932;28;20131;-77
2021/12/31 11:30:30;;;;;;;120.90;72.30;;;14.90;1.00;;;;;;5075486;28;20484;-77
2021/12/31 11:33:05;;;;;;;112.78;72.70;;;14.90;1.00;;;;;;5072946;28;20099;-79
2021/12/31 11:35:43;;;;;;;104.28;69.60;;;14.90;1.00;;;;;;5054831;28;20459;-76
2021/12/31 11:38:15;;;;;;;114.43;68.53;;;15.00;1.00;;;;;;5057591;28;20107;-76
2021/12/31 11:40:50;;;;;;;108.72;68.75;;;15.10;1.00;;;;;;5064696;28;20041;-78
2021/12/31 11:43:20;;;;;;;103.63;62.72;;;15.20;1.00;;;;;;5071545;28;20056;-76
2021/12/31 11:46:25;;;;;;;101.43;63.67;;;15.20;1.00;;;;;;5063700;28;20128;-76
2021/12/31 11:48:53;;;;;;;107.50;66.72;;;15.10;1.00;;;;;;5068751;28;20037;-76
2021/12/31 11:51:26;;;;;;;90.78;61.95;;;15.00;1.00;;;;;;5066431;28;20115;-79
2021/12/31 11:54:16;;;;;;;76.45;48.30;;;15.00;1.00;;;;;;5086369;28;20052;-78
2021/12/31 11:57:01;;;;;;;74.70;50.17;;;14.90;1.00;;;;;;5085305;28;20115;-77
2021/12/31 11:59:31;;;;;;;82.20;49.75;;;14.90;1.00;;;;;;5105764;28;20033;-76
2021/12/31 12:02:13;;;;;;;72.03;46.42;;;14.90;1.00;;;;;;5105021;28;20040;-78
2021/12/31 12:04:41;;;;;;;70.57;43.25;;;14.90;1.00;;;;;;5077198;28;20086;-76
2021/12/31 12:07:12;;;;;;;66.20;44.47;;;14.90;1.00;;;;;;5082820;28;20044;-77
2021/12/31 12:10:16;;;;;;;61.72;39.92;;;14.90;1.00;;;;;;5082341;28;20041;-78
2021/12/31 12:12:49;;;;;;;54.95;37.38;;;15.00;1.00;;;;;;5084866;28;20040;-77
2021/12/31 12:15:35;;;;;;;53.90;37.33;;;15.00;1.00;;;;;;5077140;28;20120;-77
2021/12/31 12:18:05;;;;;;;51.25;36.47;;;15.00;1.00;;;;;;5058904;28;20058;-78
2021/12/31 12:20:45;;;;;;;49.97;34.13;;;15.10;1.00;;;;;;5058378;28;20521;-77
2021/12/31 12:23:23;;;;;;;46.13;31.45;;;15.10;1.00;;;;;;5078874;28;20041;-79
2021/12/31 12:25:51;;;;;;;60.08;43.42;;;15.10;1.00;;;;;;5079659;28;20071;-78
2021/12/31 12:28:22;;;;;;;49.60;32.72;;;15.10;1.00;;;;;;5090325;28;20055;-79
2021/12/31 12:31:04;;;;;;;50.15;32.80;;;15.20;1.00;;;;;;5074803;28;20072;-78
2021/12/31 12:33:32;;;;;;;46.22;33.70;;;15.20;1.00;;;;;;5091922;28;20048;-78
2021/12/31 12:36:01;;;;;;;51.75;30.95;;;15.20;1.00;;;;;;5087942;28;20044;-78
2021/12/31 12:38:33;;;;;;;46.97;30.65;;;15.30;1.00;;;;;;5058343;28;20060;-77
2021/12/31 12:41:02;;;;;;;50.10;30.50;;;15.30;1.00;;;;;;5075896;28;20040;-77